Decoded Metar for LFMP (Perpignan in FRANCE) (IATA:PGF) | Meteo·Mobile Aviation Weather
aviador You're here:

LFMP Decoded Metar

Perpignan in FRANCE
Report Time2018-10-18 16:30:00
UTC Time2018-10-18 16:40:28
Flight Rules vfr VFR
Wind300° at 05 kt
W.Decomp.*RWY 31: 4.9 kt HW 0.9 kt LCW
RWY 33: 4.3 kt HW 2.5 kt LCW
W.Rank300° ranks 3
Current wind is below 300° avg. (12.2)
Visibility9999 m
Phenomena:N/A
Clouds:Broken 047 Hf
Broken 130 Hf
Expected CloudBase > 1,600 ft AGL from Temp-Dew spread
Ceiling4,700 ft
Temp19°C (ISA +4)
Dew Point15°C (78% RH)
AAT18.8°C
QNH1014 hPa
Density Alt856 ft
Elevation157 ft
Report Wrong Elevation
Raw Report
METAR LFMP 181630Z AUTO 30005KT 9999 BKN047 BKN130 19/15 Q1014
NOSIG=

Extra information for LFMP:More info

Metar Taf Metar & Taf Last 4 Metars F.Rules Stats Wind Profile Meteogram Temp Stats Airport Information Weather charts Add Link Nearby VenuesMetar ALERT Operation Metar Decoded Social comments